Time;durP1;ratioP1;P1;durP2;ratioP2;P2;SDS_P1;SDS_P2;PMS_P1;PMS_P2;Temp;Humidity;BMP_temperature;BMP_pressure;BME280_temperature;BME280_humidity;BME280_pressure;Samples;Min_cycle;Max_cycle;Signal;HPM_P1;HPM_P2
2020/12/31 00:05:32;;;;;;;0.87;0.40;;;7.10;99.90;;;;;;20624560;28;20251;-75
2020/12/31 00:15:35;;;;;;;0.33;0.20;;;7.20;99.90;;;;;;20625453;28;21046;-75
2020/12/31 00:25:45;;;;;;;1.50;0.40;;;7.10;99.90;;;;;;20624941;28;20199;-73
2020/12/31 00:35:53;;;;;;;0.20;0.20;;;7.00;99.90;;;;;;20624715;28;20235;-74
2020/12/31 00:45:56;;;;;;;0.20;0.20;;;7.10;99.90;;;;;;20623597;28;20772;-72
2020/12/31 00:55:59;;;;;;;0.50;0.30;;;6.90;99.90;;;;;;20623518;28;20247;-72
2020/12/31 01:06:02;;;;;;;0.20;0.10;;;6.70;99.90;;;;;;20625233;28;20208;-72
2020/12/31 01:16:05;;;;;;;0.80;0.40;;;6.70;99.90;;;;;;20622543;28;20231;-72
2020/12/31 01:26:09;;;;;;;0.70;0.30;;;6.80;99.90;;;;;;20631523;28;20702;-72
2020/12/31 01:36:12;;;;;;;0.97;0.40;;;6.60;99.90;;;;;;20703045;28;20222;-72
2020/12/31 01:46:15;;;;;;;0.30;0.30;;;6.70;99.90;;;;;;20715267;28;20199;-72
2020/12/31 01:56:23;;;;;;;0.20;0.10;;;6.60;99.90;;;;;;20717414;28;20242;-72
2020/12/31 02:06:26;;;;;;;0.20;0.10;;;6.70;99.90;;;;;;20716478;28;20198;-72
2020/12/31 02:16:33;;;;;;;0.70;0.70;;;6.60;99.90;;;;;;20713655;28;20229;-73
2020/12/31 02:26:38;;;;;;;0.20;0.10;;;6.40;99.90;;;;;;20712671;28;20218;-72
2020/12/31 02:36:41;;;;;;;0.20;0.10;;;6.30;99.90;;;;;;20712773;28;20310;-72
2020/12/31 02:46:45;;;;;;;0.30;0.20;;;6.00;99.90;;;;;;20714565;28;20887;-71
2020/12/31 02:56:47;;;;;;;0.33;0.27;;;5.80;99.90;;;;;;20709000;28;20306;-71
2020/12/31 03:06:50;;;;;;;0.20;0.10;;;6.10;99.90;;;;;;20711873;28;20203;-72
2020/12/31 03:16:53;;;;;;;6.10;1.37;;;6.10;99.90;;;;;;20709018;28;20641;-72
2020/12/31 03:26:56;;;;;;;0.20;0.10;;;6.20;99.90;;;;;;20709974;28;20672;-71
2020/12/31 03:36:59;;;;;;;0.70;0.50;;;5.90;99.90;;;;;;20707468;28;20234;-71
2020/12/31 03:47:03;;;;;;;0.20;0.10;;;5.50;99.90;;;;;;20708707;28;21111;-71
2020/12/31 03:57:05;;;;;;;0.20;0.10;;;5.30;99.90;;;;;;20706755;28;20237;-71
2020/12/31 04:07:09;;;;;;;0.30;0.30;;;5.20;99.90;;;;;;20704651;28;20253;-72
2020/12/31 04:17:11;;;;;;;0.20;0.10;;;5.30;99.90;;;;;;20702568;28;20230;-72
2020/12/31 04:27:15;;;;;;;0.20;0.10;;;5.30;99.90;;;;;;20703007;28;20199;-72
2020/12/31 04:37:17;;;;;;;0.30;0.30;;;5.00;99.90;;;;;;20704166;28;20707;-71
2020/12/31 04:47:21;;;;;;;0.23;0.23;;;5.40;99.90;;;;;;20704199;28;20284;-71
2020/12/31 04:57:23;;;;;;;0.20;0.10;;;5.40;99.90;;;;;;20704739;28;20705;-71
2020/12/31 05:07:27;;;;;;;2.00;0.60;;;5.40;99.90;;;;;;20718370;28;20197;-71
2020/12/31 05:17:30;;;;;;;0.20;0.10;;;5.40;99.90;;;;;;20716791;28;20218;-70
2020/12/31 05:27:34;;;;;;;0.97;0.97;;;5.20;99.90;;;;;;20715151;28;20199;-71
2020/12/31 05:37:36;;;;;;;0.20;0.20;;;5.20;99.90;;;;;;20717456;28;20818;-70
2020/12/31 05:47:47;;;;;;;0.60;0.33;;;5.40;99.90;;;;;;20713441;28;20217;-71
2020/12/31 05:57:51;;;;;;;0.30;0.20;;;4.70;99.90;;;;;;20711721;28;20221;-72
2020/12/31 06:07:57;;;;;;;0.27;0.27;;;4.40;99.90;;;;;;20712274;28;20194;-71
2020/12/31 06:18:01;;;;;;;0.20;0.10;;;4.20;99.90;;;;;;20708119;28;20225;-71
2020/12/31 06:28:07;;;;;;;0.97;0.87;;;3.90;99.90;;;;;;20710468;28;20252;-72
2020/12/31 06:38:10;;;;;;;1.10;0.87;;;3.90;99.90;;;;;;20708542;28;20244;-71
2020/12/31 06:48:39;;;;;;;0.33;0.30;;;3.10;99.90;;;;;;20708793;28;20199;-72
2020/12/31 06:58:43;;;;;;;0.80;0.80;;;4.20;99.90;;;;;;20709045;28;20222;-69
2020/12/31 07:08:46;;;;;;;0.67;0.63;;;4.50;99.90;;;;;;20708291;28;20229;-70
2020/12/31 07:18:53;;;;;;;0.30;0.30;;;4.70;99.90;;;;;;20706645;28;20222;-70
2020/12/31 07:28:57;;;;;;;0.20;0.10;;;5.20;99.90;;;;;;20706908;28;20195;-70
2020/12/31 07:38:59;;;;;;;0.27;0.23;;;5.30;99.90;;;;;;20701757;28;20226;-69
2020/12/31 07:49:03;;;;;;;0.20;0.20;;;6.20;99.90;;;;;;20704810;28;20203;-71
2020/12/31 07:59:05;;;;;;;0.20;0.17;;;6.20;99.90;;;;;;20701966;28;20582;-70
2020/12/31 08:09:09;;;;;;;0.30;0.27;;;6.60;99.90;;;;;;20699962;28;20225;-71
2020/12/31 08:19:12;;;;;;;0.33;0.27;;;6.80;99.90;;;;;;20703970;28;20667;-69
2020/12/31 08:29:16;;;;;;;0.20;0.10;;;7.10;99.90;;;;;;20703476;28;20239;-69
2020/12/31 08:39:20;;;;;;;0.20;0.20;;;7.30;99.90;;;;;;20701111;28;20246;-71
2020/12/31 08:49:25;;;;;;;1.60;1.17;;;7.50;99.90;;;;;;20702254;28;20199;-69
2020/12/31 08:59:32;;;;;;;0.20;0.10;;;7.60;99.90;;;;;;20698093;28;20223;-69
2020/12/31 09:09:37;;;;;;;0.57;0.57;;;7.80;99.90;;;;;;20700114;28;20199;-70
2020/12/31 09:19:50;;;;;;;0.20;0.10;;;8.10;99.90;;;;;;20697859;28;20214;-70
2020/12/31 09:29:57;;;;;;;0.80;0.70;;;8.40;99.90;;;;;;20697789;28;20191;-70
2020/12/31 09:40:00;;;;;;;1.40;0.33;;;8.80;99.90;;;;;;20697792;28;20230;-70
2020/12/31 09:50:04;;;;;;;0.60;0.33;;;8.90;99.90;;;;;;20709700;28;20192;-72
2020/12/31 10:00:07;;;;;;;0.20;0.10;;;9.40;99.90;;;;;;20692588;28;20234;-69
2020/12/31 10:10:10;;;;;;;0.23;0.23;;;9.90;99.90;;;;;;20710238;28;20683;-71
2020/12/31 10:20:13;;;;;;;0.20;0.10;;;10.40;99.90;;;;;;20707269;28;20596;-70
2020/12/31 10:30:16;;;;;;;0.20;0.10;;;10.80;99.90;;;;;;20704061;28;20256;-74
2020/12/31 10:40:19;;;;;;;0.20;0.20;;;11.40;99.90;;;;;;20709341;28;20242;-70
2020/12/31 10:50:22;;;;;;;0.50;0.40;;;11.50;99.90;;;;;;20707778;28;20244;-71
2020/12/31 11:00:25;;;;;;;0.40;0.40;;;11.90;99.90;;;;;;20706856;28;20302;-73
2020/12/31 11:10:28;;;;;;;0.20;0.10;;;12.60;99.90;;;;;;20704847;28;20501;-74
2020/12/31 11:20:31;;;;;;;0.20;0.20;;;12.80;99.90;;;;;;20705720;28;20218;-73
2020/12/31 11:30:34;;;;;;;0.20;0.10;;;13.50;99.90;;;;;;20702943;28;20197;-70
2020/12/31 11:40:37;;;;;;;0.20;0.20;;;13.70;99.90;;;;;;20703126;28;20549;-74
2020/12/31 11:50:42;;;;;;;0.93;0.77;;;13.70;99.90;;;;;;20701390;28;20210;-70
2020/12/31 12:00:45;;;;;;;1.07;0.67;;;14.30;99.90;;;;;;20701720;28;20226;-69
2020/12/31 12:10:49;;;;;;;0.73;0.60;;;14.30;99.90;;;;;;20700353;28;20206;-72
2020/12/31 12:20:52;;;;;;;0.30;0.20;;;14.80;99.90;;;;;;20701072;28;20920;-73
2020/12/31 12:30:55;;;;;;;0.20;0.20;;;15.70;99.90;;;;;;20699708;28;20204;-71
2020/12/31 12:40:58;;;;;;;0.53;0.27;;;15.60;99.90;;;;;;20700214;28;20231;-81
2020/12/31 12:51:01;;;;;;;0.20;0.10;;;16.00;99.90;;;;;;20699268;28;20195;-70
2020/12/31 13:01:04;;;;;;;0.20;0.10;;;16.80;99.90;;;;;;20697138;28;20714;-76
2020/12/31 13:11:08;;;;;;;0.60;0.50;;;16.70;99.90;;;;;;20701147;28;20206;-71
2020/12/31 13:21:10;;;;;;;0.30;0.30;;;16.00;99.90;;;;;;20707710;28;20233;-71
2020/12/31 13:31:13;;;;;;;0.20;0.17;;;16.30;99.90;;;;;;20714041;28;20682;-72
2020/12/31 13:41:16;;;;;;;0.30;0.30;;;17.30;99.90;;;;;;20714011;28;20254;-73
2020/12/31 13:51:20;;;;;;;0.43;0.43;;;17.20;99.90;;;;;;20711540;28;20205;-68
2020/12/31 14:01:22;;;;;;;1.33;0.77;;;17.20;99.90;;;;;;20708905;28;20225;-71
2020/12/31 14:11:26;;;;;;;0.30;0.30;;;16.60;99.90;;;;;;20712567;28;20249;-71
2020/12/31 14:21:29;;;;;;;0.20;0.17;;;17.00;99.90;;;;;;20695160;28;20227;-71
2020/12/31 14:31:35;;;;;;;1.93;0.80;;;16.00;99.90;;;;;;20709167;28;20230;-76
2020/12/31 14:41:37;;;;;;;0.20;0.20;;;17.00;99.90;;;;;;20710610;28;20223;-73
2020/12/31 14:51:41;;;;;;;0.20;0.10;;;16.90;99.90;;;;;;20706954;28;20245;-72
2020/12/31 15:01:43;;;;;;;0.57;0.57;;;14.90;99.90;;;;;;20705459;28;20218;-71
2020/12/31 15:11:47;;;;;;;0.20;0.13;;;15.50;99.90;;;;;;20705313;28;20687;-71
2020/12/31 15:21:49;;;;;;;0.20;0.20;;;15.00;99.90;;;;;;20703932;28;20581;-71
2020/12/31 15:31:53;;;;;;;0.20;0.10;;;14.90;99.90;;;;;;20701990;28;20751;-71
2020/12/31 15:41:56;;;;;;;0.20;0.20;;;15.40;99.90;;;;;;20699183;28;20230;-70
2020/12/31 15:51:59;;;;;;;0.40;0.20;;;13.80;99.90;;;;;;20702509;28;20730;-71
2020/12/31 16:02:02;;;;;;;1.00;0.70;;;13.20;99.90;;;;;;20698603;28;20218;-72
2020/12/31 16:12:07;;;;;;;4.47;0.30;;;12.80;99.90;;;;;;20701357;28;20731;-73
2020/12/31 16:22:12;;;;;;;1.17;1.03;;;12.30;99.90;;;;;;20699912;28;20695;-73
2020/12/31 16:32:16;;;;;;;0.97;0.40;;;12.10;99.90;;;;;;20701356;28;20198;-72
2020/12/31 16:42:20;;;;;;;0.90;0.80;;;11.90;99.90;;;;;;20698830;28;20245;-71
2020/12/31 16:52:24;;;;;;;0.37;0.37;;;11.70;99.90;;;;;;20699198;28;20293;-72
2020/12/31 17:02:26;;;;;;;0.80;0.77;;;11.50;99.90;;;;;;20712883;28;20215;-71
2020/12/31 17:12:30;;;;;;;0.40;0.40;;;11.20;99.90;;;;;;20716395;28;20761;-71
2020/12/31 17:22:32;;;;;;;2.13;0.87;;;11.00;99.90;;;;;;20709108;28;20218;-71
2020/12/31 17:32:36;;;;;;;0.97;0.83;;;10.90;99.90;;;;;;20713986;28;20738;-72
2020/12/31 17:42:38;;;;;;;0.50;0.40;;;11.10;99.90;;;;;;20711598;28;20230;-71
2020/12/31 17:52:43;;;;;;;1.93;1.83;;;11.00;99.90;;;;;;20711275;28;20209;-72
2020/12/31 18:02:46;;;;;;;1.07;1.00;;;10.80;99.90;;;;;;20708062;28;20222;-70
2020/12/31 18:12:50;;;;;;;1.80;1.60;;;10.60;99.90;;;;;;20710347;28;20199;-70
2020/12/31 18:22:53;;;;;;;0.87;0.57;;;10.50;99.90;;;;;;20707531;28;20530;-72
2020/12/31 18:32:57;;;;;;;2.03;0.93;;;10.50;99.90;;;;;;20707431;28;20866;-70
2020/12/31 18:43:01;;;;;;;0.60;0.60;;;10.70;99.90;;;;;;20703775;28;20234;-72
2020/12/31 18:53:05;;;;;;;2.20;0.23;;;10.70;99.90;;;;;;20705676;28;20565;-72
2020/12/31 19:03:09;;;;;;;0.93;0.70;;;10.80;99.90;;;;;;20701754;28;20237;-71
2020/12/31 19:13:13;;;;;;;1.17;0.83;;;10.70;99.90;;;;;;20703875;28;20742;-77
2020/12/31 19:23:16;;;;;;;1.13;1.03;;;10.70;99.90;;;;;;20703841;28;20703;-72
2020/12/31 19:33:19;;;;;;;2.43;0.60;;;10.70;99.90;;;;;;20705151;28;20202;-70
2020/12/31 19:43:22;;;;;;;1.43;0.90;;;10.50;99.90;;;;;;20701057;28;20230;-70
2020/12/31 19:53:25;;;;;;;1.50;0.60;;;10.50;99.90;;;;;;20703816;28;20719;-72
2020/12/31 20:03:28;;;;;;;1.77;0.87;;;10.70;99.90;;;;;;20699867;28;20218;-72
2020/12/31 20:13:31;;;;;;;0.20;0.20;;;10.90;99.90;;;;;;20701883;28;20209;-74
2020/12/31 20:23:34;;;;;;;0.30;0.30;;;10.90;99.90;;;;;;20699316;28;20226;-72
2020/12/31 20:33:37;;;;;;;0.83;0.60;;;10.80;99.90;;;;;;20701539;28;20972;-71
2020/12/31 20:43:40;;;;;;;0.57;0.30;;;10.90;99.90;;;;;;20699250;28;20238;-74
2020/12/31 20:53:43;;;;;;;0.27;0.17;;;11.00;99.90;;;;;;20700477;28;20229;-72
2020/12/31 21:03:46;;;;;;;0.30;0.27;;;10.90;99.90;;;;;;20698459;28;20223;-72
2020/12/31 21:13:50;;;;;;;0.67;0.43;;;10.90;99.90;;;;;;20702013;28;20209;-72
2020/12/31 21:23:52;;;;;;;0.77;0.30;;;10.80;99.90;;;;;;20697538;28;20226;-70
2020/12/31 21:33:56;;;;;;;0.83;0.57;;;10.70;99.90;;;;;;20698090;28;20739;-71
2020/12/31 21:43:58;;;;;;;0.83;0.83;;;10.40;99.90;;;;;;20708453;28;20230;-71
2020/12/31 21:54:02;;;;;;;2.73;0.70;;;10.30;99.90;;;;;;20713199;28;20195;-71
2020/12/31 22:04:05;;;;;;;3.30;0.83;;;10.30;99.90;;;;;;20710269;28;20229;-70
2020/12/31 22:14:10;;;;;;;0.30;0.30;;;10.20;99.90;;;;;;20708889;28;20317;-70
2020/12/31 22:24:13;;;;;;;4.57;0.80;;;10.30;99.90;;;;;;20708543;28;20320;-71
2020/12/31 22:34:18;;;;;;;3.80;1.27;;;10.30;99.90;;;;;;20708762;28;20659;-71
2020/12/31 22:44:21;;;;;;;1.60;0.60;;;10.10;99.90;;;;;;20707364;28;20632;-73
2020/12/31 22:54:24;;;;;;;0.30;0.23;;;10.00;99.90;;;;;;20667796;28;20207;-70
2020/12/31 23:04:27;;;;;;;0.37;0.37;;;10.00;99.90;;;;;;20704745;28;20229;-70
2020/12/31 23:14:30;;;;;;;1.97;1.33;;;9.80;99.90;;;;;;20631094;28;20670;-71
2020/12/31 23:24:33;;;;;;;1.50;0.73;;;9.70;99.90;;;;;;20621382;28;20235;-71
2020/12/31 23:34:36;;;;;;;0.40;0.40;;;9.70;99.90;;;;;;20621421;28;20207;-71
2020/12/31 23:44:39;;;;;;;0.67;0.67;;;9.50;99.90;;;;;;20688329;28;20600;-71
2020/12/31 23:54:42;;;;;;;0.67;0.50;;;9.30;99.90;;;;;;20700838;28;20671;-71
